Jackson, TN

8:06 AM CST on January 28, 2015 (GMT -0600)
Historic East Main Street | Change Station
CLOSE
Current Station
Personal Weather Station
Location: Jackson, TN
Elevation: 410 ft
Nearby Weather Stations

Elev 410 ft 35.61 °N, 88.81 °W | Updated 10 seconds ago

Clear
Clear
30.8 °F
Feels Like 31 °F
N
1.0
Wind Variable Wind from SE
Gusts 4.0 mph

Today
High -- | Low -- °F
--% Chance of Precip.
Yesterday
High -- | Low -- °F
Precip. -- in
6:58 AM 5:18 PM
Waxing Gibbous, 65% visible
Pressure 30.32 in
Visibility 10.0 miles
Clouds Clear
Windchill 31 °F
Dew Point 27 °F
Humidity 86%
Rainfall 0.00 in
Snow Depth Not available.
UV 0 out of 12
Pollen 1.90 out of 12
Air Quality Not available.
Flu Activity Not available.
METAR KMKL 281353Z 00000KT 10SM CLR 00/M03 A3031 RMK AO2 SLP266 CONTRAILS T00001033

More Conditions Fewer Conditions

Pressure 30.32 in
Visibility 10.0 miles
Clouds Clear
Windchill 31 °F
Dew Point 27 °F
Humidity 86%
Rainfall 0.00 in
Snow Depth Not available.
UV 0 out of 12
Pollen 1.90 out of 12
Air Quality Not available.
Flu Activity Not available.
METAR KMKL 281353Z 00000KT 10SM CLR 00/M03 A3031 RMK AO2 SLP266 CONTRAILS T00001033

More Conditions Fewer Conditions

10-Day Weather Forecast

Almanac

Astronomy

Jan. 28, 2015 Rise Set
Actual Time
Civil Twilight
Nautical Twilight
Astronomical Twilight
Moon
Length of Visible Light
Length of Day
Tomorrow will be .
, % of the Moon is Illuminated

Today's Extremes

State Highs State Lows

Community

WunderPhotos

Upload Photos

1,791,148 photos uploaded!

WunderBlogs® & News

Nearby

Air Quality

  Air Quality AQ Index Pollutant
Not available.

Snow Depth

Station Depth Elevation

Earthquake Activity

City Distance Mag. Time & Date
Minimum magnitude displayed is 2.5.

Coastal Water Temperatures

Place Temperature

Nearby Weather Stations